createdAt,value
2018-11-27T07:02:35.570Z,4.64
2018-11-27T07:05:03.222Z,4.73
2018-11-27T07:07:30.624Z,4.70
2018-11-27T07:09:58.127Z,4.68
2018-11-27T07:12:25.655Z,4.66
2018-11-27T07:14:53.118Z,4.64
2018-11-27T07:17:20.678Z,4.65
2018-11-27T07:19:48.204Z,4.70
2018-11-27T07:22:15.691Z,4.71
2018-11-27T07:24:43.174Z,4.77
2018-11-27T07:27:10.588Z,4.82
2018-11-27T07:29:38.048Z,4.84
2018-11-27T07:32:09.424Z,4.86
2018-11-27T07:34:33.288Z,4.88
2018-11-27T07:37:00.724Z,4.89
2018-11-27T07:39:28.184Z,4.84
2018-11-27T07:41:55.687Z,4.81
2018-11-27T07:44:23.141Z,4.81
2018-11-27T07:46:50.674Z,4.73
2018-11-27T07:49:18.068Z,4.76
2018-11-27T07:51:45.560Z,4.81
2018-11-27T07:54:13.013Z,4.88
2018-11-27T07:56:40.507Z,4.86
2018-11-27T07:59:07.895Z,4.84
2018-11-27T08:01:35.315Z,4.82
2018-11-27T08:04:02.691Z,4.81
2018-11-27T08:06:30.149Z,4.85
2018-11-27T08:08:57.719Z,4.87
2018-11-27T08:11:25.149Z,4.92
2018-11-27T08:13:52.591Z,4.94
2018-11-27T08:16:20.099Z,4.96
2018-11-27T08:18:47.519Z,4.93
2018-11-27T08:21:15.029Z,4.94
2018-11-27T08:23:42.549Z,4.97
2018-11-27T08:26:10.255Z,4.93
2018-11-27T08:28:37.727Z,4.95
2018-11-27T08:31:05.325Z,4.95
2018-11-27T08:33:32.740Z,5.01
2018-11-27T08:36:00.127Z,4.99
2018-11-27T08:38:27.691Z,5.02
2018-11-27T08:40:55.089Z,5.07
2018-11-27T08:43:22.609Z,5.10
2018-11-27T08:45:50.109Z,5.10
2018-11-27T08:48:17.595Z,5.10
2018-11-27T08:50:44.962Z,5.14
2018-11-27T08:53:12.435Z,5.14
2018-11-27T08:55:42.165Z,5.14
2018-11-27T08:58:18.306Z,5.20
2018-11-27T09:00:45.760Z,5.17
2018-11-27T09:03:13.147Z,5.12
2018-11-27T09:05:40.644Z,5.15
2018-11-27T09:08:08.982Z,5.25
2018-11-27T09:10:36.405Z,5.31
2018-11-27T09:13:04.651Z,5.37
2018-11-27T09:15:32.245Z,5.35
2018-11-27T09:18:02.530Z,5.31
2018-11-27T09:20:30.039Z,5.38
2018-11-27T09:22:57.469Z,5.50
2018-11-27T09:25:24.955Z,5.55
2018-11-27T09:27:52.448Z,5.64
2018-11-27T09:30:23.196Z,5.66
2018-11-27T09:32:50.721Z,5.70
2018-11-27T09:35:18.254Z,5.71
2018-11-27T09:37:45.673Z,5.76
2018-11-27T09:40:14.362Z,5.78
2018-11-27T09:42:41.897Z,5.74
2018-11-27T09:45:14.325Z,5.80
2018-11-27T09:47:42.767Z,5.81
2018-11-27T09:50:11.355Z,5.70
2018-11-27T09:52:38.901Z,5.59
2018-11-27T09:55:08.869Z,5.48
2018-11-27T09:57:36.347Z,5.46
2018-11-27T10:00:05.093Z,5.48
2018-11-27T10:02:32.562Z,5.45
2018-11-27T10:04:59.964Z,5.44
2018-11-27T10:07:27.859Z,5.51
2018-11-27T10:09:54.840Z,5.54
2018-11-27T10:12:22.336Z,5.61
2018-11-27T10:14:49.778Z,5.64
2018-11-27T10:17:17.369Z,5.62
2018-11-27T10:19:44.754Z,5.63
2018-11-27T10:22:12.212Z,5.58
2018-11-27T10:24:39.707Z,5.66
2018-11-27T10:27:07.148Z,5.67
2018-11-27T10:29:34.614Z,5.68
2018-11-27T10:32:02.162Z,5.56
2018-11-27T10:34:29.584Z,5.47
2018-11-27T10:36:57.031Z,5.44
2018-11-27T10:39:24.582Z,5.50
2018-11-27T10:41:52.427Z,5.52
2018-11-27T10:44:19.878Z,5.54
2018-11-27T10:46:47.425Z,5.46
2018-11-27T10:49:15.132Z,5.39
2018-11-27T10:51:42.528Z,5.30
2018-11-27T10:54:09.992Z,5.32
2018-11-27T10:56:37.404Z,5.30
2018-11-27T10:59:05.500Z,5.33
2018-11-27T11:01:55.088Z,5.42
2018-11-27T11:04:22.685Z,5.50
2018-11-27T11:06:50.085Z,5.49
2018-11-27T11:09:17.590Z,5.40
2018-11-27T11:11:45.089Z,5.39
2018-11-27T11:14:12.585Z,5.42
2018-11-27T11:16:40.302Z,5.53
2018-11-27T11:19:07.885Z,5.56
2018-11-27T11:21:35.475Z,5.63
2018-11-27T11:24:03.151Z,5.63
2018-11-27T11:26:30.743Z,5.57
2018-11-27T11:28:58.254Z,5.61
2018-11-27T11:31:25.729Z,5.69
2018-11-27T11:33:53.229Z,5.80
2018-11-27T11:36:20.787Z,5.72
2018-11-27T11:38:48.419Z,5.59
2018-11-27T11:41:15.865Z,5.45
2018-11-27T11:43:43.294Z,5.43
2018-11-27T11:46:10.801Z,5.51
2018-11-27T11:48:38.283Z,5.45
2018-11-27T11:51:06.284Z,5.43
2018-11-27T11:53:33.779Z,5.41
2018-11-27T11:56:01.196Z,5.35
2018-11-27T11:58:28.642Z,5.25
2018-11-27T12:00:56.818Z,5.15
2018-11-27T12:03:24.245Z,5.14
2018-11-27T12:05:51.746Z,5.23
2018-11-27T12:08:19.315Z,5.24
2018-11-27T12:10:46.753Z,5.24
2018-11-27T12:13:14.185Z,5.27
2018-11-27T12:15:41.761Z,5.24
2018-11-27T12:18:09.945Z,5.19
2018-11-27T12:20:38.233Z,5.21
2018-11-27T12:23:07.125Z,5.10
2018-11-27T12:25:34.541Z,5.00
2018-11-27T12:28:02.025Z,5.06
2018-11-27T12:30:29.643Z,4.96
2018-11-27T12:32:57.185Z,4.93
2018-11-27T12:35:24.654Z,5.02
2018-11-27T12:37:52.373Z,5.06
2018-11-27T12:40:24.489Z,5.00
2018-11-27T12:42:52.522Z,4.94
2018-11-27T12:45:22.906Z,4.94
2018-11-27T12:47:50.652Z,5.00
2018-11-27T12:50:20.844Z,5.03
2018-11-27T12:52:48.324Z,5.06
2018-11-27T12:55:16.957Z,5.15
2018-11-27T12:57:44.540Z,5.26
2018-11-27T13:00:14.437Z,5.35
2018-11-27T13:02:42.101Z,5.38
2018-11-27T13:05:13.052Z,5.41
2018-11-27T13:07:40.620Z,5.38
2018-11-27T13:10:11.708Z,5.20
2018-11-27T13:12:39.280Z,5.09
2018-11-27T13:15:09.969Z,4.99
2018-11-27T13:17:37.413Z,4.92
2018-11-27T13:20:07.467Z,4.93
2018-11-27T13:22:34.901Z,4.95
2018-11-27T13:25:02.407Z,4.97
2018-11-27T13:27:29.915Z,4.93
2018-11-27T13:29:58.269Z,5.02
2018-11-27T13:32:25.831Z,5.09
2018-11-27T13:34:53.342Z,5.13
2018-11-27T13:37:20.809Z,5.07
2018-11-27T13:39:48.361Z,5.12
2018-11-27T13:42:15.840Z,5.15
2018-11-27T13:44:43.253Z,5.20
2018-11-27T13:47:10.725Z,5.19
2018-11-27T13:49:38.169Z,5.07
2018-11-27T13:52:05.982Z,5.04
2018-11-27T13:54:33.375Z,5.01
2018-11-27T13:57:00.883Z,5.02
2018-11-27T13:59:28.320Z,4.98
2018-11-27T14:01:56.043Z,4.96
2018-11-27T14:04:23.513Z,4.87
2018-11-27T14:06:50.977Z,4.86
2018-11-27T14:09:18.498Z,4.90
2018-11-27T14:11:46.086Z,4.89
2018-11-27T14:14:13.488Z,4.87
2018-11-27T14:16:41.057Z,4.81
2018-11-27T14:19:08.511Z,4.80
2018-11-27T14:21:36.048Z,4.81
2018-11-27T14:24:03.561Z,4.83
2018-11-27T14:26:31.087Z,4.79
2018-11-27T14:28:58.501Z,4.78
2018-11-27T14:31:25.916Z,4.76
2018-11-27T14:33:53.372Z,4.82
2018-11-27T14:36:20.804Z,4.83
2018-11-27T14:38:48.199Z,4.71
2018-11-27T14:41:15.782Z,4.71
2018-11-27T14:43:43.219Z,4.74
2018-11-27T14:46:10.744Z,4.74
2018-11-27T14:48:38.168Z,4.75
2018-11-27T14:51:05.786Z,4.74
2018-11-27T14:53:33.178Z,4.63
2018-11-27T14:56:00.655Z,4.58
2018-11-27T14:58:28.080Z,4.53
2018-11-27T15:00:55.513Z,4.56
2018-11-27T15:03:22.931Z,4.56
2018-11-27T15:05:50.540Z,4.55
2018-11-27T15:08:17.916Z,4.55
2018-11-27T15:10:45.488Z,4.52
2018-11-27T15:13:13.136Z,4.37
2018-11-27T15:15:40.598Z,4.28
2018-11-27T15:18:08.197Z,4.24
2018-11-27T15:20:35.800Z,4.23
2018-11-27T15:23:03.212Z,4.27
2018-11-27T15:25:30.808Z,4.33
2018-11-27T15:27:58.319Z,4.30
2018-11-27T15:30:31.544Z,4.25
2018-11-27T15:32:59.808Z,4.23
2018-11-27T15:35:27.248Z,4.25
2018-11-27T15:37:54.881Z,4.25
2018-11-27T15:40:23.747Z,4.25
2018-11-27T15:42:52.819Z,4.28
2018-11-27T15:45:26.532Z,4.27
2018-11-27T15:47:53.970Z,4.30
2018-11-27T15:50:21.482Z,4.28
2018-11-27T15:52:48.950Z,4.31
2018-11-27T15:55:19.634Z,4.33
2018-11-27T15:57:48.299Z,4.25
2018-11-27T16:00:17.166Z,4.20
2018-11-27T16:02:44.928Z,4.12
2018-11-27T16:05:12.938Z,4.14
2018-11-27T16:12:37.116Z,4.18
2018-11-27T16:15:06.268Z,4.20
2018-11-27T16:17:33.709Z,4.23
2018-11-27T16:20:01.126Z,4.22
2018-11-27T16:22:28.647Z,4.23
2018-11-27T16:24:56.136Z,4.24
2018-11-27T16:27:23.804Z,4.24
2018-11-27T16:29:51.308Z,4.21
2018-11-27T16:32:18.784Z,4.19
2018-11-27T16:34:46.368Z,4.25
2018-11-27T16:37:13.862Z,4.27
2018-11-27T16:39:41.326Z,4.28
2018-11-27T16:42:08.824Z,4.28
2018-11-27T16:44:36.517Z,4.31
2018-11-27T16:47:04.461Z,4.35
2018-11-27T16:49:31.908Z,4.36
2018-11-27T16:51:59.442Z,4.37
2018-11-27T16:54:26.953Z,4.42
2018-11-27T16:56:54.436Z,4.42
2018-11-27T16:59:21.848Z,4.42
2018-11-27T17:01:49.398Z,4.44
2018-11-27T17:04:16.970Z,4.45
2018-11-27T17:06:44.726Z,4.46
2018-11-27T17:09:12.109Z,4.48
2018-11-27T17:11:39.588Z,4.48
2018-11-27T17:14:07.150Z,4.51
2018-11-27T17:16:35.034Z,4.52
2018-11-27T17:19:02.654Z,4.49
2018-11-27T17:21:30.113Z,4.50
2018-11-27T17:23:57.696Z,4.50
2018-11-27T17:26:25.241Z,4.47
2018-11-27T17:28:52.820Z,4.47
2018-11-27T17:31:20.224Z,4.52
2018-11-27T17:33:54.529Z,4.53
2018-11-27T17:36:21.979Z,4.46
2018-11-27T17:38:49.449Z,4.40
2018-11-27T17:41:16.923Z,4.40
2018-11-27T17:43:44.353Z,4.38
2018-11-27T17:46:11.836Z,4.41
2018-11-27T17:48:39.397Z,4.41
2018-11-27T17:51:07.340Z,4.44
2018-11-27T17:53:34.906Z,4.45
2018-11-27T17:56:02.507Z,4.39
2018-11-27T17:58:30.004Z,4.37
2018-11-27T18:00:57.589Z,4.35
2018-11-27T18:03:25.037Z,4.38
2018-11-27T18:05:52.646Z,4.42
2018-11-27T18:08:20.061Z,4.48
2018-11-27T18:10:47.593Z,4.47
2018-11-27T18:13:15.015Z,4.45
2018-11-27T18:15:42.437Z,4.49
2018-11-27T18:18:10.037Z,4.53
2018-11-27T18:20:37.515Z,4.56
2018-11-27T18:23:05.212Z,4.56
2018-11-27T18:25:32.725Z,4.58
2018-11-27T18:28:00.216Z,4.60
2018-11-27T18:30:27.785Z,4.62
2018-11-27T18:32:55.480Z,4.64
2018-11-27T18:35:24.244Z,4.62
2018-11-27T18:37:52.412Z,4.58
2018-11-27T18:40:20.441Z,4.59
2018-11-27T18:42:48.149Z,4.55
2018-11-27T18:45:20.436Z,4.53
2018-11-27T18:47:47.998Z,4.54
2018-11-27T18:50:15.587Z,4.57
2018-11-27T18:52:43.430Z,4.60
2018-11-27T18:55:12.400Z,4.61
2018-11-27T18:57:40.753Z,4.60
2018-11-27T19:00:12.274Z,4.59
2018-11-27T19:02:40.201Z,4.59
2018-11-27T19:05:07.961Z,4.57
2018-11-27T19:07:35.668Z,4.55
2018-11-27T19:10:03.801Z,4.56
2018-11-27T19:12:32.537Z,4.59
2018-11-27T19:14:59.997Z,4.62
2018-11-27T19:17:27.503Z,4.60
2018-11-27T19:19:55.069Z,4.59
2018-11-27T19:22:22.583Z,4.60
2018-11-27T19:24:50.024Z,4.62
2018-11-27T19:27:17.668Z,4.63
2018-11-27T19:29:45.110Z,4.63
2018-11-27T19:32:12.592Z,4.63
2018-11-27T19:34:40.033Z,4.66
2018-11-27T19:37:07.675Z,4.67
2018-11-27T19:39:35.232Z,4.67
2018-11-27T19:42:02.728Z,4.70
2018-11-27T19:44:30.156Z,4.72
2018-11-27T19:46:57.585Z,4.76
2018-11-27T19:49:25.063Z,4.76
2018-11-27T19:51:52.637Z,4.73
2018-11-27T19:54:20.166Z,4.70
2018-11-27T19:56:47.700Z,4.71
2018-11-27T19:59:15.152Z,4.72
2018-11-27T20:01:42.696Z,4.70
2018-11-27T20:04:10.194Z,4.70
2018-11-27T20:06:38.014Z,4.71
2018-11-27T20:09:08.114Z,4.72
2018-11-27T20:11:35.653Z,4.75
2018-11-27T20:14:03.346Z,4.78
2018-11-27T20:16:30.849Z,4.78
2018-11-27T20:18:58.403Z,4.80
2018-11-27T20:21:25.932Z,4.81
2018-11-27T20:23:53.448Z,4.76
2018-11-27T20:26:20.917Z,4.76
2018-11-27T20:28:48.502Z,4.80
2018-11-27T20:31:16.013Z,4.89
2018-11-27T20:33:43.430Z,4.95
2018-11-27T20:36:10.876Z,4.96
2018-11-27T20:38:38.370Z,4.96
2018-11-27T20:41:05.811Z,4.94
2018-11-27T20:43:33.300Z,4.95
2018-11-27T20:46:00.968Z,4.96
2018-11-27T20:48:28.512Z,4.99
2018-11-27T20:50:56.086Z,5.01
2018-11-27T20:53:23.572Z,4.97
2018-11-27T20:55:51.056Z,5.05
2018-11-27T20:58:18.820Z,5.02
2018-11-27T21:00:47.993Z,5.01
2018-11-27T21:03:15.764Z,4.94
2018-11-27T21:05:43.303Z,4.89
2018-11-27T21:08:10.865Z,4.89
2018-11-27T21:10:39.041Z,4.89
2018-11-27T21:13:07.945Z,4.91
2018-11-27T21:15:36.276Z,4.83
2018-11-27T21:18:04.137Z,4.80
2018-11-27T21:20:31.627Z,4.75
2018-11-27T21:22:59.088Z,4.73
2018-11-27T21:25:26.524Z,4.68
2018-11-27T21:28:00.711Z,4.71
2018-11-27T21:30:28.168Z,4.76
2018-11-27T21:32:55.577Z,4.72
2018-11-27T21:35:23.126Z,4.68
2018-11-27T21:37:50.600Z,4.70
2018-11-27T21:40:18.298Z,4.73
2018-11-27T21:42:45.856Z,4.64
2018-11-27T21:45:17.374Z,4.60
2018-11-27T21:47:45.447Z,4.63
2018-11-27T21:50:15.198Z,4.61
2018-11-27T21:52:42.632Z,4.61
2018-11-27T21:55:11.256Z,4.53
2018-11-27T21:57:38.776Z,4.55
2018-11-27T22:00:10.608Z,4.58
2018-11-27T22:02:38.140Z,4.52
2018-11-27T22:05:06.668Z,4.51
2018-11-27T22:07:34.211Z,4.46
2018-11-27T22:10:01.690Z,4.43
2018-11-27T22:12:29.260Z,4.47
2018-11-27T22:14:56.621Z,4.48
2018-11-27T22:17:24.060Z,4.50
2018-11-27T22:19:51.458Z,4.52
2018-11-27T22:22:18.989Z,4.55
2018-11-27T22:24:46.534Z,4.60
2018-11-27T22:27:13.983Z,4.63
2018-11-27T22:29:41.396Z,4.58
2018-11-27T22:32:08.889Z,4.64
2018-11-27T22:34:36.331Z,4.62
2018-11-27T22:37:03.796Z,4.56
2018-11-27T22:39:31.325Z,4.55
2018-11-27T22:41:58.844Z,4.53
2018-11-27T22:44:26.248Z,4.52
2018-11-27T22:46:53.791Z,4.47
2018-11-27T22:49:21.247Z,4.45
2018-11-27T22:51:48.812Z,4.40
2018-11-27T22:54:16.223Z,4.37
2018-11-27T22:56:43.956Z,4.39
2018-11-27T22:59:11.378Z,4.42
2018-11-27T23:01:39.196Z,4.45
2018-11-27T23:04:07.786Z,4.47
2018-11-27T23:06:35.909Z,4.47
2018-11-27T23:09:06.174Z,4.50
2018-11-27T23:11:33.758Z,4.51
2018-11-27T23:14:01.161Z,4.52
2018-11-27T23:16:28.838Z,4.55
2018-11-27T23:18:56.459Z,4.53
2018-11-27T23:21:23.920Z,4.52
2018-11-27T23:23:51.469Z,4.49
2018-11-27T23:26:19.111Z,4.51
2018-11-27T23:28:46.503Z,4.51
2018-11-27T23:31:14.032Z,4.53
2018-11-27T23:33:41.583Z,4.56
2018-11-27T23:36:09.003Z,4.56
2018-11-27T23:38:36.481Z,4.52
2018-11-27T23:41:04.061Z,4.49
2018-11-27T23:43:31.521Z,4.50
2018-11-27T23:45:58.908Z,4.54
2018-11-27T23:48:26.489Z,4.61
2018-11-27T23:50:53.883Z,4.68
2018-11-27T23:53:21.307Z,4.64
2018-11-27T23:55:48.821Z,4.62
2018-11-27T23:58:16.290Z,4.55
